Time;durP1;ratioP1;P1;durP2;ratioP2;P2;SDS_P1;SDS_P2;PMS_P1;PMS_P2;Temp;Humidity;BMP_temperature;BMP_pressure;BME280_temperature;BME280_humidity;BME280_pressure;Samples;Min_cycle;Max_cycle;Signal;HPM_P1;HPM_P2
2022/01/11 07:59:24;;;;;;;37.42;22.08;;;;;;;0.95;84.14;103124.03;5283563;28;20745;-77
2022/01/11 08:01:55;;;;;;;30.92;22.42;;;;;;;0.98;83.53;103123.69;5278408;28;20037;-76
2022/01/11 08:04:30;;;;;;;32.88;22.60;;;;;;;0.95;83.36;103126.75;5266051;28;20028;-78
2022/01/11 08:07:02;;;;;;;34.05;21.70;;;;;;;1.04;83.83;103128.44;5264338;28;20025;-77
2022/01/11 08:09:34;;;;;;;30.23;19.60;;;;;;;1.03;83.61;103119.41;5271690;28;20060;-77
2022/01/11 08:12:06;;;;;;;30.98;20.35;;;;;;;1.06;83.89;103121.78;5266210;28;20060;-78
2022/01/11 08:14:37;;;;;;;31.20;19.48;;;;;;;1.13;83.62;103121.13;5260929;28;20385;-78
2022/01/11 08:17:08;;;;;;;30.08;19.75;;;;;;;1.15;82.71;103125.41;5264296;28;20111;-71
2022/01/11 08:19:40;;;;;;;31.20;20.00;;;;;;;1.20;83.67;103125.75;5266797;28;20045;-71
2022/01/11 08:22:11;;;;;;;30.48;18.90;;;;;;;1.21;83.72;103124.69;5255583;28;20049;-71
2022/01/11 08:24:44;;;;;;;30.63;20.38;;;;;;;1.30;83.29;103129.16;5269710;28;20028;-71
2022/01/11 08:27:17;;;;;;;30.05;19.55;;;;;;;1.33;82.84;103130.69;5275953;28;20461;-71
2022/01/11 08:29:49;;;;;;;30.80;20.70;;;;;;;1.35;82.70;103135.97;5264587;28;20095;-71
2022/01/11 08:32:21;;;;;;;27.10;18.88;;;;;;;1.43;82.30;103134.09;5271785;28;20031;-71
2022/01/11 08:34:52;;;;;;;30.23;19.92;;;;;;;1.55;82.74;103130.97;5262123;28;20022;-77
2022/01/11 08:37:23;;;;;;;27.33;19.02;;;;;;;1.59;81.80;103133.19;5274282;28;20041;-77
2022/01/11 08:39:54;;;;;;;27.02;19.35;;;;;;;1.64;81.88;103133.53;5259223;28;20461;-76
2022/01/11 08:42:32;;;;;;;29.30;17.05;;;;;;;1.68;82.42;103134.03;5268919;28;20512;-77
2022/01/11 08:45:05;;;;;;;30.98;19.05;;;;;;;1.73;81.16;103135.19;5257433;28;20053;-77
2022/01/11 08:47:36;;;;;;;25.90;17.63;;;;;;;1.74;81.45;103133.34;5252896;28;20030;-76
2022/01/11 08:50:11;;;;;;;31.83;21.20;;;;;;;1.79;80.80;103135.53;5261593;28;20140;-77
2022/01/11 08:52:44;;;;;;;25.52;18.45;;;;;;;1.80;80.89;103129.91;5253087;28;20041;-76
2022/01/11 08:55:16;;;;;;;28.73;18.33;;;;;;;1.88;81.72;103138.06;5277630;28;20033;-80
2022/01/11 08:57:47;;;;;;;26.92;18.27;;;;;;;1.90;80.14;103130.53;5269349;28;20064;-79
2022/01/11 09:00:19;;;;;;;27.58;16.92;;;;;;;1.94;80.19;103136.50;5258908;28;20025;-77
2022/01/11 09:02:51;;;;;;;24.13;18.10;;;;;;;2.03;80.91;103132.72;5251524;28;20052;-75
2022/01/11 09:05:25;;;;;;;28.10;18.98;;;;;;;2.05;80.35;103138.88;5265941;28;20020;-78
2022/01/11 09:07:56;;;;;;;28.55;18.65;;;;;;;2.06;80.59;103151.53;5262932;28;20061;-79
2022/01/11 09:10:28;;;;;;;26.35;18.20;;;;;;;2.05;80.87;103149.81;5259155;28;20021;-78
2022/01/11 09:12:59;;;;;;;29.17;18.70;;;;;;;2.12;80.66;103164.53;5248182;28;20021;-72
2022/01/11 09:15:32;;;;;;;26.95;19.95;;;;;;;2.14;81.19;103159.69;5254569;28;20025;-77
2022/01/11 09:18:04;;;;;;;24.83;16.52;;;;;;;2.11;80.82;103157.31;5246453;28;20030;-78
2022/01/11 09:20:35;;;;;;;24.52;16.33;;;;;;;2.22;79.73;103147.88;5230206;28;20049;-77
2022/01/11 09:23:07;;;;;;;25.23;18.83;;;;;;;2.21;80.61;103154.38;5260015;28;20025;-79
2022/01/11 09:25:38;;;;;;;25.40;17.80;;;;;;;2.23;80.64;103156.94;5246484;28;20025;-77
2022/01/11 09:28:10;;;;;;;25.45;17.10;;;;;;;2.36;80.27;103168.19;5244543;28;20517;-77
2022/01/11 09:30:44;;;;;;;22.73;15.65;;;;;;;2.46;79.62;103159.75;5258596;28;20054;-76
2022/01/11 09:33:16;;;;;;;21.20;15.68;;;;;;;2.51;79.82;103149.97;5246251;28;20056;-76
2022/01/11 09:35:47;;;;;;;22.80;15.68;;;;;;;2.54;79.18;103155.06;5256113;28;20025;-76
2022/01/11 09:38:19;;;;;;;21.33;16.63;;;;;;;2.59;78.82;103155.38;5243224;28;20457;-75
2022/01/11 09:40:52;;;;;;;25.17;16.98;;;;;;;2.61;78.53;103161.53;5245323;28;20065;-76
2022/01/11 09:43:26;;;;;;;23.98;16.52;;;;;;;2.71;78.30;103158.59;5250226;28;20047;-77
2022/01/11 09:45:57;;;;;;;21.23;15.20;;;;;;;2.74;78.15;103171.06;5254115;28;20032;-77
2022/01/11 09:48:34;;;;;;;21.15;14.95;;;;;;;2.77;77.46;103170.69;5259871;28;20021;-75
2022/01/11 09:51:05;;;;;;;24.30;16.15;;;;;;;2.83;77.20;103175.44;5234269;28;20066;-77
2022/01/11 09:53:37;;;;;;;20.38;14.85;;;;;;;2.87;77.12;103179.53;5227136;28;20058;-75
2022/01/11 09:56:09;;;;;;;22.08;15.68;;;;;;;2.90;77.86;103176.44;5247378;28;20108;-74
2022/01/11 09:58:41;;;;;;;21.42;14.63;;;;;;;2.93;77.56;103176.06;5262837;28;20056;-75
2022/01/11 10:01:13;;;;;;;22.55;14.73;;;;;;;2.95;77.10;103182.22;5244023;28;20076;-74
2022/01/11 10:04:06;;;;;;;17.73;13.77;;;;;;;3.04;77.98;103174.78;5244856;28;20032;-75
2022/01/11 10:06:42;;;;;;;17.42;13.23;;;;;;;3.03;77.54;103179.41;5251975;28;20025;-74
2022/01/11 10:09:18;;;;;;;;;;;;;;;3.22;79.97;103183.56;5235151;28;20025;-77
2022/01/11 10:11:55;;;;;;;20.60;13.88;;;;;;;3.15;76.76;103184.50;5241493;28;19927;-72
2022/01/11 10:14:33;;;;;;;20.38;14.93;;;;;;;3.16;77.30;103180.69;5238573;28;20029;-71
2022/01/11 10:17:15;;;;;;;20.50;13.70;;;;;;;3.21;76.83;103189.22;5239048;28;20029;-72
2022/01/11 10:20:15;;;;;;;20.70;14.52;;;;;;;3.29;77.40;103185.56;5257485;28;20420;-74
2022/01/11 10:22:52;;;;;;;20.95;14.57;;;;;;;3.25;76.44;103187.84;5240326;28;20025;-75
2022/01/11 10:25:24;;;;;;;18.27;12.98;;;;;;;3.20;76.36;103182.06;5242439;28;20029;-74
2022/01/11 10:28:04;;;;;;;19.98;13.25;;;;;;;3.29;76.91;103183.69;5236970;28;20079;-74
2022/01/11 10:30:39;;;;;;;17.77;14.20;;;;;;;3.29;77.07;103188.31;5241639;28;20389;-75
2022/01/11 10:33:10;;;;;;;22.02;13.73;;;;;;;3.29;76.71;103180.94;5254779;28;20036;-74
2022/01/11 10:35:44;;;;;;;17.17;13.93;;;;;;;3.33;76.83;103171.31;5242625;28;20029;-75
2022/01/11 10:38:28;;;;;;;24.27;13.98;;;;;;;3.34;76.58;103172.16;5246029;28;20400;-71
2022/01/11 10:41:01;;;;;;;20.63;14.00;;;;;;;3.37;76.58;103178.13;5257918;28;20028;-72
2022/01/11 10:43:44;;;;;;;20.88;14.07;;;;;;;3.42;76.96;103181.16;5248872;28;20020;-72
2022/01/11 10:46:17;;;;;;;17.88;12.80;;;;;;;3.43;77.01;103188.38;5244429;28;20087;-73
2022/01/11 10:48:48;;;;;;;18.13;13.13;;;;;;;3.44;76.73;103179.09;5257876;28;20102;-73
2022/01/11 10:51:19;;;;;;;18.45;13.93;;;;;;;3.46;76.68;103184.41;5241198;28;20063;-72
2022/01/11 10:53:51;;;;;;;17.63;12.95;;;;;;;3.54;76.47;103183.47;5239364;28;20013;-73
2022/01/11 10:56:38;;;;;;;18.02;12.23;;;;;;;3.57;77.05;103189.44;5249114;28;20032;-73
2022/01/11 10:59:10;;;;;;;24.85;14.25;;;;;;;3.57;76.47;103191.31;5258300;28;20099;-73
2022/01/11 11:01:44;;;;;;;19.58;12.27;;;;;;;3.58;76.53;103188.41;5236708;28;20022;-76
2022/01/11 11:04:31;;;;;;;15.75;11.02;;;;;;;3.65;76.15;103192.09;5247614;28;20025;-76
2022/01/11 11:07:11;;;;;;;17.70;12.93;;;;;;;3.70;76.65;103186.91;5246362;28;20036;-73
2022/01/11 11:09:44;;;;;;;19.73;12.52;;;;;;;3.66;76.06;103182.84;5257982;28;20057;-73
2022/01/11 11:12:17;;;;;;;17.65;13.82;;;;;;;3.69;76.44;103185.19;5250460;28;20109;-73
2022/01/11 11:14:52;;;;;;;20.95;12.90;;;;;;;3.65;77.07;103183.84;5257716;28;20392;-73
2022/01/11 11:17:29;;;;;;;16.40;12.30;;;;;;;3.73;76.22;103182.06;5252637;28;20214;-73
2022/01/11 11:20:10;;;;;;;17.63;11.18;;;;;;;3.75;76.27;103186.34;5247083;28;20542;-73
2022/01/11 11:22:41;;;;;;;18.52;12.35;;;;;;;3.79;75.97;103182.19;5253124;28;20472;-73
2022/01/11 11:25:15;;;;;;;16.08;11.40;;;;;;;3.81;76.48;103195.72;5256875;28;20051;-73
2022/01/11 11:27:47;;;;;;;14.98;10.90;;;;;;;3.82;76.48;103191.94;5249509;28;20051;-73
2022/01/11 11:30:18;;;;;;;18.23;12.32;;;;;;;3.83;76.26;103189.00;5249020;28;20033;-72
2022/01/11 11:32:52;;;;;;;17.70;12.00;;;;;;;3.84;77.18;103185.22;5239711;28;20064;-72
2022/01/11 11:35:24;;;;;;;16.52;11.20;;;;;;;3.88;76.67;103183.78;5244959;28;20090;-73
2022/01/11 11:38:02;;;;;;;16.75;11.13;;;;;;;3.89;76.24;103177.28;5249799;28;20029;-73
2022/01/11 11:40:34;;;;;;;14.50;10.80;;;;;;;3.89;76.41;103171.78;5247390;28;20029;-73
2022/01/11 11:43:09;;;;;;;16.08;12.43;;;;;;;3.88;76.74;103164.56;5239745;28;20526;-73
2022/01/11 11:45:43;;;;;;;17.38;11.52;;;;;;;3.96;76.71;103157.28;5253930;28;20034;-73
2022/01/11 11:48:17;;;;;;;14.55;11.27;;;;;;;4.00;76.67;103167.72;5253424;28;20411;-73
2022/01/11 11:50:51;;;;;;;15.05;11.23;;;;;;;3.96;76.85;103160.88;5247111;28;20037;-73
2022/01/11 11:53:31;;;;;;;16.75;11.23;;;;;;;4.05;76.57;103158.91;5243789;28;20025;-73
2022/01/11 11:56:22;;;;;;;17.67;11.75;;;;;;;4.11;76.55;103153.50;5251192;28;20437;-73
2022/01/11 11:58:56;;;;;;;15.15;11.10;;;;;;;4.18;76.18;103170.09;5242817;28;20493;-79
2022/01/11 12:01:34;;;;;;;16.23;10.77;;;;;;;4.30;75.65;103159.47;5244591;28;20047;-79
2022/01/11 12:04:05;;;;;;;16.05;12.02;;;;;;;4.41;75.48;103164.47;5249927;28;20029;-79
2022/01/11 12:06:36;;;;;;;15.13;10.95;;;;;;;4.51;75.97;103166.91;5246189;28;20381;-78
2022/01/11 12:09:10;;;;;;;19.75;11.95;;;;;;;4.53;74.91;103171.19;5243560;28;20033;-80
2022/01/11 12:11:46;;;;;;;13.20;10.60;;;;;;;4.68;75.38;103165.66;5237401;28;20387;-78
2022/01/11 12:14:35;;;;;;;17.38;10.63;;;;;;;4.76;75.52;103168.28;5262148;28;20059;-73
2022/01/11 12:17:09;;;;;;;13.75;10.63;;;;;;;4.80;74.93;103165.97;5245262;28;20083;-75
2022/01/11 12:19:46;;;;;;;15.75;10.02;;;;;;;4.88;74.78;103165.00;5247657;28;20108;-73
2022/01/11 12:22:21;;;;;;;15.02;9.23;;;;;;;4.92;74.16;103164.44;5249886;28;20057;-72
2022/01/11 12:24:56;;;;;;;14.20;10.60;;;;;;;4.94;73.64;103162.34;5257967;28;20435;-73
2022/01/11 12:27:27;;;;;;;12.63;9.38;;;;;;;5.00;74.10;103158.78;5245940;28;20052;-74
2022/01/11 12:30:04;;;;;;;17.63;10.80;;;;;;;5.05;73.37;103154.63;5250977;28;20052;-73
2022/01/11 12:32:57;;;;;;;12.93;9.60;;;;;;;4.99;72.71;103153.50;5258959;28;20373;-72
2022/01/11 12:35:28;;;;;;;11.80;9.00;;;;;;;5.17;73.79;103159.41;5243781;28;20044;-70
2022/01/11 12:38:08;;;;;;;12.07;7.78;;;;;;;5.45;79.93;103164.09;5243405;28;20029;-73
2022/01/11 12:40:40;;;;;;;12.88;9.18;;;;;;;5.34;74.75;103162.72;5244928;28;20076;-72
2022/01/11 12:43:19;;;;;;;12.52;9.48;;;;;;;5.39;72.94;103156.59;5234885;28;20408;-70
2022/01/11 12:46:05;;;;;;;13.98;9.00;;;;;;;5.36;72.07;103155.09;5232171;28;20052;-71
2022/01/11 12:48:58;;;;;;;13.48;8.75;;;;;;;5.35;71.95;103156.16;5244068;28;20376;-70
2022/01/11 12:51:38;;;;;;;12.93;9.30;;;;;;;5.34;71.85;103159.09;5227524;28;20022;-73
2022/01/11 12:54:31;;;;;;;11.60;8.23;;;;;;;5.38;71.90;103154.91;5245726;28;20025;-73
2022/01/11 12:57:19;;;;;;;13.82;8.77;;;;;;;5.42;71.72;103156.25;5240981;28;20385;-73
2022/01/11 12:59:59;;;;;;;15.80;8.95;;;;;;;5.48;70.68;103155.44;5256455;28;20373;-73
2022/01/11 13:02:33;;;;;;;13.35;8.32;;;;;;;5.52;70.38;103156.75;5239636;28;20041;-73
2022/01/11 13:05:09;;;;;;;12.70;9.43;;;;;;;5.42;70.56;103151.56;5256052;28;20037;-75
2022/01/11 13:07:42;;;;;;;16.35;7.93;;;;;;;5.55;70.53;103152.75;5249848;28;20040;-74
2022/01/11 13:10:19;;;;;;;12.68;8.32;;;;;;;5.52;71.11;103156.75;5253468;28;20338;-73
2022/01/11 13:13:09;;;;;;;15.43;7.90;;;;;;;5.40;69.24;103155.59;5250649;28;20112;-71
2022/01/11 13:15:42;;;;;;;11.07;7.90;;;;;;;5.46;69.82;103152.03;5257087;28;20068;-71
2022/01/11 13:18:19;;;;;;;12.35;7.65;;;;;;;5.56;69.56;103154.44;5232540;28;20048;-70
2022/01/11 13:20:59;;;;;;;11.18;7.35;;;;;;;5.63;68.93;103147.06;5246322;28;20084;-70
2022/01/11 13:23:46;;;;;;;12.38;7.95;;;;;;;5.66;69.06;103138.41;5257963;28;20029;-71
2022/01/11 13:26:20;;;;;;;10.60;7.43;;;;;;;5.81;68.55;103138.31;5243535;28;20086;-72
2022/01/11 13:28:57;;;;;;;10.32;7.00;;;;;;;5.87;68.47;103140.25;5231616;28;20042;-72
2022/01/11 13:31:32;;;;;;;15.05;9.27;;;;;;;5.83;68.29;103136.22;5264695;28;20037;-72
2022/01/11 13:34:10;;;;;;;9.65;7.68;;;;;;;5.88;68.55;103130.94;5253558;28;20075;-72
2022/01/11 13:36:47;;;;;;;15.70;8.93;;;;;;;5.88;68.08;103122.69;5243426;28;20017;-73
2022/01/11 13:39:24;;;;;;;11.73;6.90;;;;;;;5.86;67.88;103135.81;5224689;28;20033;-72
2022/01/11 13:41:58;;;;;;;13.27;8.95;;;;;;;5.94;67.81;103137.56;5248744;28;20026;-71
2022/01/11 13:44:32;;;;;;;11.65;7.70;;;;;;;5.89;67.68;103132.63;5233489;28;20377;-70
2022/01/11 13:47:06;;;;;;;12.23;7.55;;;;;;;5.80;67.08;103134.72;5257844;28;20025;-72
2022/01/11 13:49:42;;;;;;;15.15;7.88;;;;;;;5.93;67.86;103144.97;5250300;28;20426;-70
2022/01/11 13:52:16;;;;;;;11.40;8.73;;;;;;;5.99;67.56;103144.16;5242849;28;20026;-71
2022/01/11 13:54:55;;;;;;;11.60;7.50;;;;;;;5.95;67.75;103148.38;5258123;28;20021;-71
2022/01/11 13:57:29;;;;;;;12.18;7.82;;;;;;;5.97;67.35;103148.19;5245612;28;20049;-71
2022/01/11 14:00:11;;;;;;;13.13;8.27;;;;;;;6.06;67.69;103153.31;5253328;28;20036;-68
2022/01/11 14:02:43;;;;;;;33.08;11.32;;;;;;;6.15;66.91;103173.28;5233396;28;20041;-69
2022/01/11 14:05:18;;;;;;;12.63;8.93;;;;;;;6.25;66.58;103170.16;5258273;28;20528;-72
2022/01/11 14:07:55;;;;;;;14.60;8.27;;;;;;;6.25;66.55;103159.13;5251712;28;20025;-71
2022/01/11 14:10:36;;;;;;;12.80;8.05;;;;;;;6.17;67.43;103156.56;5243643;28;20025;-72
2022/01/11 14:13:16;;;;;;;15.82;8.07;;;;;;;6.17;67.00;103162.91;5249674;28;20040;-72
2022/01/11 14:15:47;;;;;;;13.05;8.90;;;;;;;6.17;66.41;103154.66;5255369;28;20109;-68
2022/01/11 14:18:23;;;;;;;12.30;8.77;;;;;;;6.17;67.18;103142.78;5254093;28;20124;-68
2022/01/11 14:21:10;;;;;;;13.75;9.95;;;;;;;6.14;67.56;103148.72;5242478;28;20021;-71
2022/01/11 14:23:52;;;;;;;14.75;10.25;;;;;;;6.06;67.70;103152.47;5252860;28;20465;-72
2022/01/11 14:26:35;;;;;;;14.93;9.73;;;;;;;6.08;67.58;103153.97;5239425;28;20022;-76
2022/01/11 14:29:07;;;;;;;18.58;11.95;;;;;;;5.99;67.89;103151.59;5244521;28;20048;-75
2022/01/11 14:31:39;;;;;;;17.75;10.63;;;;;;;6.03;68.04;103153.75;5248346;28;20017;-76
2022/01/11 14:34:12;;;;;;;17.00;9.93;;;;;;;6.02;67.59;103156.69;5251068;28;20135;-75
2022/01/11 14:36:44;;;;;;;11.13;9.25;;;;;;;5.99;67.28;103149.69;5258285;28;20048;-76
2022/01/11 14:39:19;;;;;;;13.18;8.85;;;;;;;6.03;68.05;103150.09;5244054;28;20029;-78
2022/01/11 14:41:50;;;;;;;12.68;8.52;;;;;;;6.00;68.02;103156.88;5247117;28;20037;-74
2022/01/11 14:44:24;;;;;;;19.10;9.70;;;;;;;5.86;68.74;103161.44;5241852;28;20032;-71
2022/01/11 14:46:58;;;;;;;15.27;9.07;;;;;;;5.94;68.23;103154.94;5256959;28;20099;-72
2022/01/11 14:49:35;;;;;;;13.15;9.07;;;;;;;5.93;68.55;103164.25;5246689;28;20024;-73
2022/01/11 14:52:12;;;;;;;13.77;11.18;;;;;;;5.92;68.99;103159.75;5241753;28;20060;-72
2022/01/11 14:54:51;;;;;;;14.20;8.38;;;;;;;5.92;68.70;103161.69;5240447;28;20396;-68
2022/01/11 14:57:29;;;;;;;16.63;9.68;;;;;;;5.89;68.73;103166.53;5229365;28;20070;-68
2022/01/11 15:00:00;;;;;;;14.27;7.85;;;;;;;5.86;68.99;103158.69;5244165;28;20030;-68
2022/01/11 15:02:34;;;;;;;16.73;8.48;;;;;;;5.84;69.04;103155.25;5247265;28;20484;-74
2022/01/11 15:05:06;;;;;;;12.85;8.23;;;;;;;5.84;68.72;103162.69;5251128;28;20132;-74
2022/01/11 15:07:38;;;;;;;12.30;8.10;;;;;;;5.81;69.21;103165.84;5251208;28;20429;-72
2022/01/11 15:10:09;;;;;;;13.32;8.15;;;;;;;5.76;68.50;103160.09;5258789;28;20207;-73
2022/01/11 15:12:40;;;;;;;14.35;8.32;;;;;;;5.68;69.17;103174.00;5246340;28;20041;-73
2022/01/11 15:15:12;;;;;;;11.52;8.88;;;;;;;5.67;69.15;103170.38;5252116;28;20040;-73
2022/01/11 15:17:43;;;;;;;13.25;9.63;;;;;;;5.65;69.10;103170.59;5248804;28;20035;-73
2022/01/11 15:20:15;;;;;;;17.02;10.77;;;;;;;5.61;69.38;103174.81;5253801;28;20388;-73
2022/01/11 15:22:50;;;;;;;18.77;10.20;;;;;;;5.63;69.70;103169.94;5240540;28;20038;-73
2022/01/11 15:25:21;;;;;;;19.25;9.45;;;;;;;5.56;70.10;103174.53;5257574;28;20108;-72
2022/01/11 15:27:53;;;;;;;13.55;8.07;;;;;;;5.57;69.78;103175.38;5253309;28;20108;-73
2022/01/11 15:30:24;;;;;;;15.77;9.75;;;;;;;5.57;70.65;103170.75;5243682;28;20036;-77
2022/01/11 15:32:55;;;;;;;16.33;8.70;;;;;;;5.58;70.04;103183.47;5258064;28;20025;-72
2022/01/11 15:35:27;;;;;;;12.10;8.82;;;;;;;5.54;70.80;103178.53;5226482;28;20037;-73
2022/01/11 15:38:00;;;;;;;14.38;8.95;;;;;;;5.55;70.60;103183.88;5241114;28;20033;-73
2022/01/11 15:40:31;;;;;;;18.95;14.95;;;;;;;5.55;70.80;103180.28;5244925;28;20052;-73
2022/01/11 15:43:02;;;;;;;12.52;8.43;;;;;;;5.48;70.70;103179.34;5257337;28;20017;-71
2022/01/11 15:45:34;;;;;;;12.07;8.43;;;;;;;5.45;70.88;103184.19;5255043;28;20021;-70
2022/01/11 15:48:07;;;;;;;14.77;9.77;;;;;;;5.42;70.96;103183.75;5252045;28;20028;-70
2022/01/11 15:50:38;;;;;;;15.75;9.30;;;;;;;5.40;71.21;103188.59;5245071;28;20022;-71
2022/01/11 15:53:09;;;;;;;26.35;17.95;;;;;;;5.42;71.07;103189.25;5242201;28;20142;-71
2022/01/11 15:55:41;;;;;;;18.58;11.68;;;;;;;5.41;71.06;103193.88;5254718;28;20025;-72
2022/01/11 15:58:13;;;;;;;14.52;8.82;;;;;;;5.40;70.86;103189.44;5225638;28;20444;-73
2022/01/11 16:00:44;;;;;;;14.35;8.93;;;;;;;5.35;71.55;103191.09;5247161;28;20080;-72
2022/01/11 16:03:17;;;;;;;17.80;8.20;;;;;;;5.31;71.84;103192.53;5234490;28;20032;-73
2022/01/11 16:05:48;;;;;;;15.27;8.38;;;;;;;5.27;71.38;103196.75;5252722;28;20033;-72
2022/01/11 16:08:19;;;;;;;11.20;8.20;;;;;;;5.21;71.62;103192.84;5233386;28;20029;-72
2022/01/11 16:10:50;;;;;;;12.50;8.93;;;;;;;5.24;71.58;103195.22;5238376;28;20443;-72
2022/01/11 16:13:22;;;;;;;17.75;11.23;;;;;;;5.20;71.87;103203.00;5245479;28;20104;-76
2022/01/11 16:15:53;;;;;;;14.98;8.68;;;;;;;5.19;71.44;103200.44;5252506;28;20021;-75
2022/01/11 16:18:25;;;;;;;15.70;9.50;;;;;;;5.20;71.20;103208.50;5253580;28;20036;-75
2022/01/11 16:20:56;;;;;;;16.30;9.10;;;;;;;5.19;72.11;103217.81;5244418;28;20032;-75
2022/01/11 16:23:29;;;;;;;15.25;9.23;;;;;;;5.10;72.40;103223.66;5260166;28;20059;-73
2022/01/11 16:26:00;;;;;;;18.45;13.10;;;;;;;5.11;72.23;103231.69;5244461;28;20475;-74
2022/01/11 16:28:32;;;;;;;19.40;11.18;;;;;;;5.12;71.92;103224.31;5259301;28;20087;-75
2022/01/11 16:31:05;;;;;;;60.40;45.90;;;;;;;5.12;72.54;103225.16;5239382;28;20041;-76
2022/01/11 16:33:37;;;;;;;13.15;10.38;;;;;;;5.05;72.54;103226.13;5258268;28;20024;-75
2022/01/11 16:36:08;;;;;;;17.08;10.82;;;;;;;5.17;72.71;103222.66;5256133;28;20021;-75
2022/01/11 16:38:39;;;;;;;11.10;8.30;;;;;;;5.20;72.57;103219.53;5244257;28;20131;-74
2022/01/11 16:43:42;;;;;;;13.52;8.18;;;;;;;5.19;71.82;103209.56;5241784;28;20048;-72
2022/01/11 16:46:14;;;;;;;14.55;8.35;;;;;;;5.14;71.58;103216.69;5252929;28;20473;-70
2022/01/11 16:48:45;;;;;;;12.20;8.07;;;;;;;5.14;72.26;103222.19;5253479;28;20054;-74
2022/01/11 16:51:16;;;;;;;13.60;8.10;;;;;;;5.08;71.89;103229.31;5245158;28;20025;-74
2022/01/11 16:53:47;;;;;;;13.52;8.55;;;;;;;5.04;72.63;103236.28;5252535;28;20037;-74
2022/01/11 16:56:19;;;;;;;12.90;9.18;;;;;;;5.15;72.52;103232.16;5242726;28;20067;-74
2022/01/11 16:58:50;;;;;;;16.50;8.30;;;;;;;5.14;72.19;103235.94;5249149;28;20057;-74
2022/01/11 17:01:21;;;;;;;13.50;8.57;;;;;;;5.12;72.40;103233.41;5248293;28;20033;-73
2022/01/11 17:03:53;;;;;;;13.13;8.27;;;;;;;5.16;72.15;103231.94;5253580;28;20413;-74
2022/01/11 17:06:24;;;;;;;12.77;7.63;;;;;;;5.08;72.08;103231.22;5244436;28;20106;-73
2022/01/11 17:08:56;;;;;;;10.73;8.13;;;;;;;5.09;72.25;103236.56;5257143;28;20087;-74
2022/01/11 17:11:27;;;;;;;13.13;8.73;;;;;;;5.11;72.59;103239.94;5249969;28;20033;-73
2022/01/11 17:13:58;;;;;;;14.80;9.75;;;;;;;5.13;72.58;103239.75;5245736;28;20053;-73
2022/01/11 17:16:30;;;;;;;12.75;9.75;;;;;;;5.09;72.67;103232.94;5239547;28;20029;-74
2022/01/11 17:19:01;;;;;;;17.33;8.82;;;;;;;5.07;72.41;103232.28;5248841;28;20033;-74
2022/01/11 17:21:33;;;;;;;11.05;8.68;;;;;;;5.05;72.37;103237.97;5264060;28;20032;-74
2022/01/11 17:24:05;;;;;;;15.10;10.05;;;;;;;5.08;72.68;103232.06;5250102;28;20087;-75
2022/01/11 17:26:36;;;;;;;10.70;8.52;;;;;;;5.04;72.26;103235.41;5258731;28;20380;-74
2022/01/11 17:29:13;;;;;;;13.30;8.38;;;;;;;5.08;72.12;103232.06;5247048;28;20480;-74
